sensor_id;sensor_type;location;lat;lon;timestamp;P1;durP1;ratioP1;P2;durP2;ratioP2
32321;SDS011;61553;48.994;8.940;2023-11-21T00:02:20;58.97;;;23.20;;
32321;SDS011;61553;48.994;8.940;2023-11-21T00:04:47;47.90;;;19.70;;
32321;SDS011;61553;48.994;8.940;2023-11-21T00:07:13;25.50;;;10.48;;
32321;SDS011;61553;48.994;8.940;2023-11-21T00:09:39;13.00;;;4.85;;
32321;SDS011;61553;48.994;8.940;2023-11-21T00:12:06;7.68;;;3.47;;
32321;SDS011;61553;48.994;8.940;2023-11-21T00:14:35;9.18;;;4.13;;
32321;SDS011;61553;48.994;8.940;2023-11-21T00:17:01;8.68;;;2.03;;
32321;SDS011;61553;48.994;8.940;2023-11-21T00:19:27;6.35;;;2.60;;
32321;SDS011;61553;48.994;8.940;2023-11-21T00:21:53;7.95;;;2.65;;
32321;SDS011;61553;48.994;8.940;2023-11-21T00:24:19;7.13;;;2.10;;
32321;SDS011;61553;48.994;8.940;2023-11-21T00:26:44;4.93;;;2.22;;
32321;SDS011;61553;48.994;8.940;2023-11-21T00:29:10;6.63;;;1.65;;
32321;SDS011;61553;48.994;8.940;2023-11-21T00:31:36;4.32;;;1.33;;
32321;SDS011;61553;48.994;8.940;2023-11-21T00:34:04;4.72;;;1.48;;
32321;SDS011;61553;48.994;8.940;2023-11-21T00:36:32;4.13;;;1.45;;
32321;SDS011;61553;48.994;8.940;2023-11-21T00:38:58;4.13;;;1.50;;
32321;SDS011;61553;48.994;8.940;2023-11-21T00:41:24;3.85;;;1.35;;
32321;SDS011;61553;48.994;8.940;2023-11-21T00:43:52;6.00;;;1.90;;
32321;SDS011;61553;48.994;8.940;2023-11-21T00:46:19;5.10;;;1.70;;
32321;SDS011;61553;48.994;8.940;2023-11-21T00:48:44;3.25;;;1.50;;
32321;SDS011;61553;48.994;8.940;2023-11-21T00:51:10;6.65;;;1.58;;
32321;SDS011;61553;48.994;8.940;2023-11-21T00:53:35;3.50;;;1.48;;
32321;SDS011;61553;48.994;8.940;2023-11-21T00:56:01;4.18;;;1.33;;
32321;SDS011;61553;48.994;8.940;2023-11-21T00:58:27;4.88;;;1.92;;
32321;SDS011;61553;48.994;8.940;2023-11-21T01:00:53;5.53;;;1.73;;
32321;SDS011;61553;48.994;8.940;2023-11-21T01:03:19;4.88;;;1.20;;
32321;SDS011;61553;48.994;8.940;2023-11-21T01:05:45;21.38;;;10.15;;
32321;SDS011;61553;48.994;8.940;2023-11-21T01:08:11;7.05;;;2.95;;
32321;SDS011;61553;48.994;8.940;2023-11-21T01:10:37;4.70;;;1.50;;
32321;SDS011;61553;48.994;8.940;2023-11-21T01:13:02;4.13;;;1.50;;
32321;SDS011;61553;48.994;8.940;2023-11-21T01:15:32;7.18;;;2.65;;
32321;SDS011;61553;48.994;8.940;2023-11-21T01:17:58;16.17;;;8.93;;
32321;SDS011;61553;48.994;8.940;2023-11-21T01:20:24;35.25;;;18.98;;
32321;SDS011;61553;48.994;8.940;2023-11-21T01:22:51;7.95;;;3.65;;
32321;SDS011;61553;48.994;8.940;2023-11-21T01:25:16;44.38;;;25.92;;
32321;SDS011;61553;48.994;8.940;2023-11-21T01:27:42;49.67;;;28.65;;
32321;SDS011;61553;48.994;8.940;2023-11-21T01:30:08;7.45;;;3.88;;
32321;SDS011;61553;48.994;8.940;2023-11-21T01:32:38;3.92;;;1.50;;
32321;SDS011;61553;48.994;8.940;2023-11-21T01:35:04;13.82;;;5.68;;
32321;SDS011;61553;48.994;8.940;2023-11-21T01:37:31;6.65;;;3.38;;
32321;SDS011;61553;48.994;8.940;2023-11-21T01:39:58;4.90;;;2.33;;
32321;SDS011;61553;48.994;8.940;2023-11-21T01:42:26;5.88;;;1.30;;
32321;SDS011;61553;48.994;8.940;2023-11-21T01:44:52;2.28;;;1.10;;
32321;SDS011;61553;48.994;8.940;2023-11-21T01:47:19;4.22;;;0.90;;
32321;SDS011;61553;48.994;8.940;2023-11-21T01:49:46;4.35;;;1.00;;
32321;SDS011;61553;48.994;8.940;2023-11-21T01:52:12;3.10;;;0.98;;
32321;SDS011;61553;48.994;8.940;2023-11-21T01:54:38;4.00;;;1.10;;
32321;SDS011;61553;48.994;8.940;2023-11-21T01:57:04;4.68;;;1.75;;
32321;SDS011;61553;48.994;8.940;2023-11-21T01:59:37;2.55;;;0.80;;
32321;SDS011;61553;48.994;8.940;2023-11-21T02:02:07;4.35;;;0.90;;
32321;SDS011;61553;48.994;8.940;2023-11-21T02:04:33;2.72;;;1.30;;
32321;SDS011;61553;48.994;8.940;2023-11-21T02:06:59;5.90;;;1.90;;
32321;SDS011;61553;48.994;8.940;2023-11-21T02:09:28;3.83;;;1.77;;
32321;SDS011;61553;48.994;8.940;2023-11-21T02:11:58;6.90;;;1.38;;
32321;SDS011;61553;48.994;8.940;2023-11-21T02:14:24;4.75;;;1.10;;
32321;SDS011;61553;48.994;8.940;2023-11-21T02:16:53;4.00;;;1.42;;
32321;SDS011;61553;48.994;8.940;2023-11-21T02:19:20;3.53;;;1.17;;
32321;SDS011;61553;48.994;8.940;2023-11-21T02:21:54;3.75;;;1.27;;
32321;SDS011;61553;48.994;8.940;2023-11-21T02:24:25;4.00;;;1.10;;
32321;SDS011;61553;48.994;8.940;2023-11-21T02:26:52;2.55;;;1.05;;
32321;SDS011;61553;48.994;8.940;2023-11-21T02:29:21;3.85;;;1.50;;
32321;SDS011;61553;48.994;8.940;2023-11-21T02:31:47;4.45;;;1.58;;
32321;SDS011;61553;48.994;8.940;2023-11-21T02:34:16;2.42;;;1.35;;
32321;SDS011;61553;48.994;8.940;2023-11-21T02:36:45;3.40;;;1.75;;
32321;SDS011;61553;48.994;8.940;2023-11-21T02:39:12;3.78;;;1.48;;
32321;SDS011;61553;48.994;8.940;2023-11-21T02:41:38;5.63;;;1.67;;
32321;SDS011;61553;48.994;8.940;2023-11-21T02:44:04;3.58;;;1.02;;
32321;SDS011;61553;48.994;8.940;2023-11-21T02:46:31;6.40;;;1.48;;
32321;SDS011;61553;48.994;8.940;2023-11-21T02:49:00;5.85;;;1.65;;
32321;SDS011;61553;48.994;8.940;2023-11-21T02:51:27;5.35;;;1.00;;
32321;SDS011;61553;48.994;8.940;2023-11-21T02:53:52;2.83;;;1.20;;
32321;SDS011;61553;48.994;8.940;2023-11-21T02:56:18;2.95;;;1.23;;
32321;SDS011;61553;48.994;8.940;2023-11-21T02:58:44;3.42;;;1.45;;
32321;SDS011;61553;48.994;8.940;2023-11-21T03:01:09;4.00;;;1.13;;
32321;SDS011;61553;48.994;8.940;2023-11-21T03:03:36;5.32;;;1.15;;
32321;SDS011;61553;48.994;8.940;2023-11-21T03:06:07;3.08;;;1.10;;
32321;SDS011;61553;48.994;8.940;2023-11-21T03:08:33;3.95;;;0.90;;
32321;SDS011;61553;48.994;8.940;2023-11-21T03:10:59;2.80;;;1.00;;
32321;SDS011;61553;48.994;8.940;2023-11-21T03:13:25;2.40;;;1.17;;
32321;SDS011;61553;48.994;8.940;2023-11-21T03:15:50;2.58;;;1.05;;
32321;SDS011;61553;48.994;8.940;2023-11-21T03:18:17;2.97;;;1.10;;
32321;SDS011;61553;48.994;8.940;2023-11-21T03:20:43;6.47;;;1.20;;
32321;SDS011;61553;48.994;8.940;2023-11-21T03:23:11;2.13;;;0.90;;
32321;SDS011;61553;48.994;8.940;2023-11-21T03:25:37;3.85;;;1.10;;
32321;SDS011;61553;48.994;8.940;2023-11-21T03:28:03;4.10;;;0.90;;
32321;SDS011;61553;48.994;8.940;2023-11-21T03:30:28;3.25;;;1.00;;
32321;SDS011;61553;48.994;8.940;2023-11-21T03:32:54;2.72;;;1.20;;
32321;SDS011;61553;48.994;8.940;2023-11-21T03:35:20;2.55;;;1.02;;
32321;SDS011;61553;48.994;8.940;2023-11-21T03:37:46;4.88;;;1.70;;
32321;SDS011;61553;48.994;8.940;2023-11-21T03:40:12;2.95;;;1.33;;
32321;SDS011;61553;48.994;8.940;2023-11-21T03:42:38;6.15;;;1.77;;
32321;SDS011;61553;48.994;8.940;2023-11-21T03:45:05;2.35;;;0.90;;
32321;SDS011;61553;48.994;8.940;2023-11-21T03:47:31;3.03;;;1.02;;
32321;SDS011;61553;48.994;8.940;2023-11-21T03:49:57;4.68;;;1.27;;
32321;SDS011;61553;48.994;8.940;2023-11-21T03:52:23;3.45;;;1.25;;
32321;SDS011;61553;48.994;8.940;2023-11-21T03:54:49;4.93;;;1.35;;
32321;SDS011;61553;48.994;8.940;2023-11-21T03:57:15;6.63;;;1.38;;
32321;SDS011;61553;48.994;8.940;2023-11-21T03:59:40;4.35;;;1.00;;
32321;SDS011;61553;48.994;8.940;2023-11-21T04:02:07;3.08;;;0.80;;
32321;SDS011;61553;48.994;8.940;2023-11-21T04:04:33;4.75;;;1.63;;
32321;SDS011;61553;48.994;8.940;2023-11-21T04:06:59;6.78;;;1.70;;
32321;SDS011;61553;48.994;8.940;2023-11-21T04:09:25;5.68;;;1.48;;
32321;SDS011;61553;48.994;8.940;2023-11-21T04:11:51;4.07;;;1.80;;
32321;SDS011;61553;48.994;8.940;2023-11-21T04:14:17;2.10;;;1.08;;
32321;SDS011;61553;48.994;8.940;2023-11-21T04:16:43;2.80;;;1.08;;
32321;SDS011;61553;48.994;8.940;2023-11-21T04:19:09;6.82;;;1.33;;
32321;SDS011;61553;48.994;8.940;2023-11-21T04:21:35;7.20;;;2.17;;
32321;SDS011;61553;48.994;8.940;2023-11-21T04:24:02;2.05;;;1.13;;
32321;SDS011;61553;48.994;8.940;2023-11-21T04:26:27;3.25;;;1.05;;
32321;SDS011;61553;48.994;8.940;2023-11-21T04:28:53;2.42;;;1.10;;
32321;SDS011;61553;48.994;8.940;2023-11-21T04:31:19;2.17;;;0.80;;
32321;SDS011;61553;48.994;8.940;2023-11-21T04:33:44;4.38;;;0.90;;
32321;SDS011;61553;48.994;8.940;2023-11-21T04:36:10;5.20;;;1.00;;
32321;SDS011;61553;48.994;8.940;2023-11-21T04:38:35;4.28;;;0.80;;
32321;SDS011;61553;48.994;8.940;2023-11-21T04:41:01;5.15;;;1.67;;
32321;SDS011;61553;48.994;8.940;2023-11-21T04:43:27;9.10;;;3.60;;
32321;SDS011;61553;48.994;8.940;2023-11-21T04:45:53;7.97;;;2.60;;
32321;SDS011;61553;48.994;8.940;2023-11-21T04:48:19;6.53;;;2.50;;
32321;SDS011;61553;48.994;8.940;2023-11-21T04:50:45;8.93;;;2.63;;
32321;SDS011;61553;48.994;8.940;2023-11-21T04:53:11;5.32;;;2.13;;
32321;SDS011;61553;48.994;8.940;2023-11-21T04:55:39;5.32;;;2.35;;
32321;SDS011;61553;48.994;8.940;2023-11-21T04:58:05;7.80;;;2.42;;
32321;SDS011;61553;48.994;8.940;2023-11-21T05:00:31;6.40;;;2.40;;
32321;SDS011;61553;48.994;8.940;2023-11-21T05:02:57;7.85;;;3.85;;
32321;SDS011;61553;48.994;8.940;2023-11-21T05:05:22;10.10;;;4.03;;
32321;SDS011;61553;48.994;8.940;2023-11-21T05:07:49;11.68;;;4.55;;
32321;SDS011;61553;48.994;8.940;2023-11-21T05:10:14;6.43;;;3.13;;
32321;SDS011;61553;48.994;8.940;2023-11-21T05:12:42;4.75;;;2.42;;
32321;SDS011;61553;48.994;8.940;2023-11-21T05:15:08;4.10;;;1.70;;
32321;SDS011;61553;48.994;8.940;2023-11-21T05:17:37;3.45;;;1.40;;
32321;SDS011;61553;48.994;8.940;2023-11-21T05:20:07;3.67;;;1.20;;
32321;SDS011;61553;48.994;8.940;2023-11-21T05:22:34;4.55;;;1.42;;
32321;SDS011;61553;48.994;8.940;2023-11-21T05:25:01;3.67;;;1.40;;
32321;SDS011;61553;48.994;8.940;2023-11-21T05:27:28;2.70;;;1.10;;
32321;SDS011;61553;48.994;8.940;2023-11-21T05:29:55;2.40;;;1.00;;
32321;SDS011;61553;48.994;8.940;2023-11-21T05:32:21;3.65;;;1.23;;
32321;SDS011;61553;48.994;8.940;2023-11-21T05:34:48;2.67;;;1.20;;
32321;SDS011;61553;48.994;8.940;2023-11-21T05:37:14;2.20;;;1.17;;
32321;SDS011;61553;48.994;8.940;2023-11-21T05:39:39;2.47;;;1.63;;
32321;SDS011;61553;48.994;8.940;2023-11-21T05:42:05;4.47;;;1.13;;
32321;SDS011;61553;48.994;8.940;2023-11-21T05:44:31;2.83;;;1.20;;
32321;SDS011;61553;48.994;8.940;2023-11-21T05:46:57;6.88;;;4.40;;
32321;SDS011;61553;48.994;8.940;2023-11-21T05:49:24;4.05;;;2.08;;
32321;SDS011;61553;48.994;8.940;2023-11-21T05:51:52;3.17;;;1.50;;
32321;SDS011;61553;48.994;8.940;2023-11-21T05:54:21;4.47;;;1.30;;
32321;SDS011;61553;48.994;8.940;2023-11-21T05:56:47;12.18;;;5.55;;
32321;SDS011;61553;48.994;8.940;2023-11-21T05:59:12;8.88;;;3.83;;
32321;SDS011;61553;48.994;8.940;2023-11-21T06:01:38;57.28;;;24.77;;
32321;SDS011;61553;48.994;8.940;2023-11-21T06:04:04;16.55;;;8.30;;
32321;SDS011;61553;48.994;8.940;2023-11-21T06:06:30;13.02;;;6.22;;
32321;SDS011;61553;48.994;8.940;2023-11-21T06:08:56;15.23;;;6.10;;
32321;SDS011;61553;48.994;8.940;2023-11-21T06:11:22;25.35;;;10.13;;
32321;SDS011;61553;48.994;8.940;2023-11-21T06:13:49;5.32;;;2.50;;
32321;SDS011;61553;48.994;8.940;2023-11-21T06:16:15;7.55;;;2.08;;
32321;SDS011;61553;48.994;8.940;2023-11-21T06:18:43;3.92;;;1.90;;
32321;SDS011;61553;48.994;8.940;2023-11-21T06:21:10;4.10;;;1.98;;
32321;SDS011;61553;48.994;8.940;2023-11-21T06:23:35;7.03;;;2.78;;
32321;SDS011;61553;48.994;8.940;2023-11-21T06:26:01;81.50;;;30.58;;
32321;SDS011;61553;48.994;8.940;2023-11-21T06:28:27;90.20;;;34.10;;
32321;SDS011;61553;48.994;8.940;2023-11-21T06:30:52;177.82;;;68.25;;
32321;SDS011;61553;48.994;8.940;2023-11-21T06:33:18;165.02;;;65.45;;
32321;SDS011;61553;48.994;8.940;2023-11-21T06:35:44;192.48;;;76.90;;
32321;SDS011;61553;48.994;8.940;2023-11-21T06:38:10;97.07;;;42.72;;
32321;SDS011;61553;48.994;8.940;2023-11-21T06:40:35;73.15;;;31.50;;
32321;SDS011;61553;48.994;8.940;2023-11-21T06:43:01;103.15;;;42.88;;
32321;SDS011;61553;48.994;8.940;2023-11-21T06:45:27;52.33;;;25.80;;
32321;SDS011;61553;48.994;8.940;2023-11-21T06:47:53;76.30;;;33.20;;
32321;SDS011;61553;48.994;8.940;2023-11-21T06:50:18;59.08;;;27.08;;
32321;SDS011;61553;48.994;8.940;2023-11-21T06:52:44;74.47;;;27.60;;
32321;SDS011;61553;48.994;8.940;2023-11-21T06:55:09;34.10;;;13.93;;
32321;SDS011;61553;48.994;8.940;2023-11-21T06:57:35;27.40;;;13.40;;
32321;SDS011;61553;48.994;8.940;2023-11-21T07:00:02;66.68;;;32.15;;
32321;SDS011;61553;48.994;8.940;2023-11-21T07:02:28;130.00;;;52.78;;
32321;SDS011;61553;48.994;8.940;2023-11-21T07:04:53;52.67;;;26.27;;
32321;SDS011;61553;48.994;8.940;2023-11-21T07:07:19;43.53;;;20.75;;
32321;SDS011;61553;48.994;8.940;2023-11-21T07:09:45;48.03;;;21.25;;
32321;SDS011;61553;48.994;8.940;2023-11-21T07:12:11;104.30;;;42.28;;
32321;SDS011;61553;48.994;8.940;2023-11-21T07:14:37;120.25;;;45.63;;
32321;SDS011;61553;48.994;8.940;2023-11-21T07:17:04;68.03;;;29.50;;
32321;SDS011;61553;48.994;8.940;2023-11-21T07:19:29;30.63;;;14.25;;
32321;SDS011;61553;48.994;8.940;2023-11-21T07:21:55;12.00;;;5.13;;
32321;SDS011;61553;48.994;8.940;2023-11-21T07:24:21;12.65;;;4.07;;
32321;SDS011;61553;48.994;8.940;2023-11-21T07:26:48;8.13;;;3.28;;
32321;SDS011;61553;48.994;8.940;2023-11-21T07:29:13;7.20;;;3.80;;
32321;SDS011;61553;48.994;8.940;2023-11-21T07:31:39;8.43;;;2.58;;
32321;SDS011;61553;48.994;8.940;2023-11-21T07:34:06;8.45;;;3.00;;
32321;SDS011;61553;48.994;8.940;2023-11-21T07:36:33;5.80;;;2.78;;
32321;SDS011;61553;48.994;8.940;2023-11-21T07:38:59;5.50;;;2.80;;
32321;SDS011;61553;48.994;8.940;2023-11-21T07:41:25;6.15;;;2.90;;
32321;SDS011;61553;48.994;8.940;2023-11-21T07:43:51;4.82;;;2.67;;
32321;SDS011;61553;48.994;8.940;2023-11-21T07:46:17;10.43;;;3.92;;
32321;SDS011;61553;48.994;8.940;2023-11-21T07:48:43;7.25;;;3.67;;
32321;SDS011;61553;48.994;8.940;2023-11-21T07:51:09;6.18;;;3.20;;
32321;SDS011;61553;48.994;8.940;2023-11-21T07:53:35;6.63;;;3.28;;
32321;SDS011;61553;48.994;8.940;2023-11-21T07:56:04;4.60;;;2.75;;
32321;SDS011;61553;48.994;8.940;2023-11-21T07:58:31;8.57;;;3.92;;
32321;SDS011;61553;48.994;8.940;2023-11-21T08:00:58;4.80;;;2.80;;
32321;SDS011;61553;48.994;8.940;2023-11-21T08:03:24;9.38;;;3.72;;
32321;SDS011;61553;48.994;8.940;2023-11-21T08:05:51;6.88;;;3.35;;
32321;SDS011;61553;48.994;8.940;2023-11-21T08:08:17;10.10;;;3.78;;
32321;SDS011;61553;48.994;8.940;2023-11-21T08:10:43;7.07;;;2.70;;
32321;SDS011;61553;48.994;8.940;2023-11-21T08:13:21;7.10;;;2.72;;
32321;SDS011;61553;48.994;8.940;2023-11-21T08:15:50;5.82;;;1.88;;
32321;SDS011;61553;48.994;8.940;2023-11-21T08:18:15;4.63;;;3.03;;
32321;SDS011;61553;48.994;8.940;2023-11-21T08:20:42;3.88;;;2.45;;
32321;SDS011;61553;48.994;8.940;2023-11-21T08:23:12;5.68;;;2.60;;
32321;SDS011;61553;48.994;8.940;2023-11-21T08:25:40;6.55;;;2.58;;
32321;SDS011;61553;48.994;8.940;2023-11-21T08:28:07;10.60;;;4.72;;
32321;SDS011;61553;48.994;8.940;2023-11-21T08:30:33;8.85;;;4.60;;
32321;SDS011;61553;48.994;8.940;2023-11-21T08:32:59;61.58;;;22.10;;
32321;SDS011;61553;48.994;8.940;2023-11-21T08:35:25;14.98;;;5.10;;
32321;SDS011;61553;48.994;8.940;2023-11-21T08:37:51;8.02;;;3.40;;
32321;SDS011;61553;48.994;8.940;2023-11-21T08:40:20;12.38;;;6.00;;
32321;SDS011;61553;48.994;8.940;2023-11-21T08:42:46;39.22;;;16.77;;
32321;SDS011;61553;48.994;8.940;2023-11-21T08:45:13;35.45;;;16.35;;
32321;SDS011;61553;48.994;8.940;2023-11-21T08:47:39;13.48;;;7.20;;
32321;SDS011;61553;48.994;8.940;2023-11-21T08:50:06;12.93;;;5.45;;
32321;SDS011;61553;48.994;8.940;2023-11-21T08:52:33;5.35;;;2.45;;
32321;SDS011;61553;48.994;8.940;2023-11-21T08:54:59;3.63;;;1.98;;
32321;SDS011;61553;48.994;8.940;2023-11-21T08:57:28;2.78;;;1.77;;
32321;SDS011;61553;48.994;8.940;2023-11-21T08:59:54;4.07;;;1.88;;
32321;SDS011;61553;48.994;8.940;2023-11-21T09:02:25;4.93;;;2.80;;
32321;SDS011;61553;48.994;8.940;2023-11-21T09:04:51;6.07;;;3.20;;
32321;SDS011;61553;48.994;8.940;2023-11-21T09:07:18;4.28;;;2.17;;
32321;SDS011;61553;48.994;8.940;2023-11-21T09:09:45;6.78;;;2.55;;
32321;SDS011;61553;48.994;8.940;2023-11-21T09:12:12;4.85;;;2.20;;
32321;SDS011;61553;48.994;8.940;2023-11-21T09:14:38;4.25;;;1.92;;
32321;SDS011;61553;48.994;8.940;2023-11-21T09:17:04;4.63;;;1.85;;
32321;SDS011;61553;48.994;8.940;2023-11-21T09:19:36;2.60;;;1.15;;
32321;SDS011;61553;48.994;8.940;2023-11-21T09:22:05;2.92;;;1.20;;
32321;SDS011;61553;48.994;8.940;2023-11-21T09:24:31;2.83;;;1.55;;
32321;SDS011;61553;48.994;8.940;2023-11-21T09:26:57;1.55;;;0.85;;
32321;SDS011;61553;48.994;8.940;2023-11-21T09:29:23;5.05;;;1.48;;
32321;SDS011;61553;48.994;8.940;2023-11-21T09:31:49;1.58;;;0.82;;
32321;SDS011;61553;48.994;8.940;2023-11-21T09:34:17;1.40;;;0.80;;
32321;SDS011;61553;48.994;8.940;2023-11-21T09:36:46;2.95;;;0.80;;
32321;SDS011;61553;48.994;8.940;2023-11-21T09:39:12;1.75;;;0.77;;
32321;SDS011;61553;48.994;8.940;2023-11-21T09:41:49;1.35;;;0.50;;
32321;SDS011;61553;48.994;8.940;2023-11-21T09:44:20;0.77;;;0.60;;
32321;SDS011;61553;48.994;8.940;2023-11-21T09:46:54;2.03;;;0.90;;
32321;SDS011;61553;48.994;8.940;2023-11-21T09:49:24;1.73;;;0.80;;
32321;SDS011;61553;48.994;8.940;2023-11-21T09:51:51;3.10;;;0.90;;
32321;SDS011;61553;48.994;8.940;2023-11-21T09:54:21;2.30;;;0.98;;
32321;SDS011;61553;48.994;8.940;2023-11-21T09:56:46;1.83;;;0.80;;
32321;SDS011;61553;48.994;8.940;2023-11-21T09:59:13;1.92;;;1.05;;
32321;SDS011;61553;48.994;8.940;2023-11-21T10:01:40;17.08;;;7.60;;
32321;SDS011;61553;48.994;8.940;2023-11-21T10:04:08;6.65;;;2.58;;
32321;SDS011;61553;48.994;8.940;2023-11-21T10:06:39;29.05;;;10.18;;
32321;SDS011;61553;48.994;8.940;2023-11-21T10:09:08;11.05;;;3.78;;
32321;SDS011;61553;48.994;8.940;2023-11-21T10:11:37;2.45;;;1.10;;
32321;SDS011;61553;48.994;8.940;2023-11-21T10:14:06;4.60;;;1.70;;
32321;SDS011;61553;48.994;8.940;2023-11-21T10:16:35;2.20;;;1.55;;
32321;SDS011;61553;48.994;8.940;2023-11-21T10:19:03;2.10;;;1.10;;
32321;SDS011;61553;48.994;8.940;2023-11-21T10:21:31;1.35;;;0.90;;
32321;SDS011;61553;48.994;8.940;2023-11-21T10:23:58;1.90;;;1.25;;
32321;SDS011;61553;48.994;8.940;2023-11-21T10:26:23;1.55;;;0.95;;
32321;SDS011;61553;48.994;8.940;2023-11-21T10:28:59;2.00;;;1.40;;
32321;SDS011;61553;48.994;8.940;2023-11-21T10:31:32;2.15;;;1.27;;
32321;SDS011;61553;48.994;8.940;2023-11-21T10:34:17;2.50;;;1.20;;
32321;SDS011;61553;48.994;8.940;2023-11-21T10:36:44;4.75;;;1.50;;
32321;SDS011;61553;48.994;8.940;2023-11-21T10:39:13;3.63;;;2.08;;
32321;SDS011;61553;48.994;8.940;2023-11-21T10:44:10;2.83;;;1.20;;
32321;SDS011;61553;48.994;8.940;2023-11-21T10:46:36;2.95;;;1.40;;
32321;SDS011;61553;48.994;8.940;2023-11-21T10:49:03;2.33;;;1.38;;
32321;SDS011;61553;48.994;8.940;2023-11-21T10:51:29;3.05;;;1.80;;
32321;SDS011;61553;48.994;8.940;2023-11-21T10:53:55;2.78;;;1.45;;
32321;SDS011;61553;48.994;8.940;2023-11-21T10:56:23;3.20;;;1.70;;
32321;SDS011;61553;48.994;8.940;2023-11-21T10:58:50;3.42;;;1.60;;
32321;SDS011;61553;48.994;8.940;2023-11-21T11:01:17;4.18;;;1.75;;
32321;SDS011;61553;48.994;8.940;2023-11-21T11:03:46;4.65;;;1.80;;
32321;SDS011;61553;48.994;8.940;2023-11-21T11:06:13;3.00;;;1.75;;
32321;SDS011;61553;48.994;8.940;2023-11-21T11:08:40;3.10;;;1.50;;
32321;SDS011;61553;48.994;8.940;2023-11-21T11:11:06;2.28;;;1.40;;
32321;SDS011;61553;48.994;8.940;2023-11-21T11:13:32;3.00;;;1.70;;
32321;SDS011;61553;48.994;8.940;2023-11-21T11:15:59;3.28;;;1.90;;
32321;SDS011;61553;48.994;8.940;2023-11-21T11:18:26;4.10;;;1.80;;
32321;SDS011;61553;48.994;8.940;2023-11-21T11:21:07;2.53;;;1.50;;
32321;SDS011;61553;48.994;8.940;2023-11-21T11:29:31;3.28;;;1.98;;
32321;SDS011;61553;48.994;8.940;2023-11-21T11:32:23;3.97;;;1.77;;
32321;SDS011;61553;48.994;8.940;2023-11-21T11:37:52;2.67;;;1.65;;
32321;SDS011;61553;48.994;8.940;2023-11-21T11:40:19;4.05;;;2.30;;
32321;SDS011;61553;48.994;8.940;2023-11-21T11:43:01;4.28;;;2.45;;
32321;SDS011;61553;48.994;8.940;2023-11-21T11:45:33;4.22;;;2.40;;
32321;SDS011;61553;48.994;8.940;2023-11-21T11:48:00;5.10;;;2.55;;
32321;SDS011;61553;48.994;8.940;2023-11-21T11:50:28;4.90;;;2.10;;
32321;SDS011;61553;48.994;8.940;2023-11-21T11:52:54;3.50;;;2.22;;
32321;SDS011;61553;48.994;8.940;2023-11-21T11:55:22;6.28;;;2.92;;
32321;SDS011;61553;48.994;8.940;2023-11-21T11:57:50;4.38;;;2.88;;
32321;SDS011;61553;48.994;8.940;2023-11-21T12:00:22;5.55;;;4.00;;
32321;SDS011;61553;48.994;8.940;2023-11-21T12:03:00;4.53;;;3.10;;
32321;SDS011;61553;48.994;8.940;2023-11-21T12:05:28;4.18;;;2.80;;
32321;SDS011;61553;48.994;8.940;2023-11-21T12:07:59;4.55;;;2.50;;
32321;SDS011;61553;48.994;8.940;2023-11-21T12:10:27;5.28;;;2.90;;
32321;SDS011;61553;48.994;8.940;2023-11-21T12:12:54;8.50;;;3.78;;
32321;SDS011;61553;48.994;8.940;2023-11-21T12:15:21;6.38;;;3.75;;
32321;SDS011;61553;48.994;8.940;2023-11-21T12:17:48;11.60;;;5.45;;
32321;SDS011;61553;48.994;8.940;2023-11-21T12:20:15;4.30;;;2.17;;
32321;SDS011;61553;48.994;8.940;2023-11-21T12:25:09;4.97;;;2.63;;
32321;SDS011;61553;48.994;8.940;2023-11-21T12:27:41;14.20;;;8.18;;
32321;SDS011;61553;48.994;8.940;2023-11-21T12:30:10;5.30;;;2.22;;
32321;SDS011;61553;48.994;8.940;2023-11-21T12:32:40;3.05;;;1.65;;
32321;SDS011;61553;48.994;8.940;2023-11-21T12:35:07;3.33;;;1.30;;
32321;SDS011;61553;48.994;8.940;2023-11-21T12:37:40;3.28;;;1.95;;
32321;SDS011;61553;48.994;8.940;2023-11-21T12:40:10;2.17;;;1.30;;
32321;SDS011;61553;48.994;8.940;2023-11-21T12:42:39;2.22;;;1.10;;
32321;SDS011;61553;48.994;8.940;2023-11-21T12:47:45;4.68;;;1.40;;
32321;SDS011;61553;48.994;8.940;2023-11-21T12:50:23;3.25;;;1.40;;
32321;SDS011;61553;48.994;8.940;2023-11-21T12:52:54;2.70;;;1.50;;
32321;SDS011;61553;48.994;8.940;2023-11-21T12:55:23;2.42;;;1.42;;
32321;SDS011;61553;48.994;8.940;2023-11-21T12:57:51;2.75;;;1.40;;
32321;SDS011;61553;48.994;8.940;2023-11-21T13:00:29;2.83;;;1.42;;
32321;SDS011;61553;48.994;8.940;2023-11-21T13:02:59;2.80;;;0.90;;
32321;SDS011;61553;48.994;8.940;2023-11-21T13:05:28;3.85;;;1.08;;
32321;SDS011;61553;48.994;8.940;2023-11-21T13:07:56;3.70;;;2.20;;
32321;SDS011;61553;48.994;8.940;2023-11-21T13:10:24;2.53;;;0.93;;
32321;SDS011;61553;48.994;8.940;2023-11-21T13:12:54;1.50;;;0.80;;
32321;SDS011;61553;48.994;8.940;2023-11-21T13:15:23;4.72;;;1.38;;
32321;SDS011;61553;48.994;8.940;2023-11-21T13:17:49;1.33;;;0.82;;
32321;SDS011;61553;48.994;8.940;2023-11-21T13:20:16;3.78;;;0.80;;
32321;SDS011;61553;48.994;8.940;2023-11-21T13:22:52;2.28;;;1.05;;
32321;SDS011;61553;48.994;8.940;2023-11-21T13:25:22;1.60;;;1.00;;
32321;SDS011;61553;48.994;8.940;2023-11-21T13:27:54;1.35;;;0.70;;
32321;SDS011;61553;48.994;8.940;2023-11-21T13:30:21;4.35;;;1.83;;
32321;SDS011;61553;48.994;8.940;2023-11-21T13:32:52;7.95;;;3.28;;
32321;SDS011;61553;48.994;8.940;2023-11-21T13:35:22;2.05;;;1.00;;
32321;SDS011;61553;48.994;8.940;2023-11-21T13:37:57;3.60;;;1.15;;
32321;SDS011;61553;48.994;8.940;2023-11-21T13:40:30;1.83;;;1.00;;
32321;SDS011;61553;48.994;8.940;2023-11-21T13:42:55;2.47;;;1.00;;
32321;SDS011;61553;48.994;8.940;2023-11-21T13:45:24;3.42;;;1.20;;
32321;SDS011;61553;48.994;8.940;2023-11-21T13:47:52;6.90;;;2.30;;
32321;SDS011;61553;48.994;8.940;2023-11-21T13:50:25;4.47;;;1.90;;
32321;SDS011;61553;48.994;8.940;2023-11-21T13:53:00;2.90;;;1.45;;
32321;SDS011;61553;48.994;8.940;2023-11-21T13:55:48;3.08;;;1.42;;
32321;SDS011;61553;48.994;8.940;2023-11-21T13:58:19;7.00;;;2.27;;
32321;SDS011;61553;48.994;8.940;2023-11-21T14:00:50;10.20;;;3.55;;
32321;SDS011;61553;48.994;8.940;2023-11-21T14:03:25;15.73;;;8.15;;
32321;SDS011;61553;48.994;8.940;2023-11-21T14:06:03;5.03;;;2.80;;
32321;SDS011;61553;48.994;8.940;2023-11-21T14:08:38;5.32;;;2.58;;
32321;SDS011;61553;48.994;8.940;2023-11-21T14:11:05;5.60;;;2.92;;
32321;SDS011;61553;48.994;8.940;2023-11-21T14:13:31;4.50;;;2.30;;
32321;SDS011;61553;48.994;8.940;2023-11-21T14:15:58;3.97;;;2.13;;
32321;SDS011;61553;48.994;8.940;2023-11-21T14:18:26;7.85;;;3.67;;
32321;SDS011;61553;48.994;8.940;2023-11-21T14:20:59;4.93;;;2.63;;
32321;SDS011;61553;48.994;8.940;2023-11-21T14:23:25;9.15;;;4.50;;
32321;SDS011;61553;48.994;8.940;2023-11-21T14:25:50;13.80;;;7.25;;
32321;SDS011;61553;48.994;8.940;2023-11-21T14:28:17;6.47;;;3.30;;
32321;SDS011;61553;48.994;8.940;2023-11-21T14:30:44;6.20;;;2.35;;
32321;SDS011;61553;48.994;8.940;2023-11-21T14:33:11;3.80;;;2.50;;
32321;SDS011;61553;48.994;8.940;2023-11-21T14:35:37;4.28;;;2.33;;
32321;SDS011;61553;48.994;8.940;2023-11-21T14:38:02;4.10;;;2.20;;
32321;SDS011;61553;48.994;8.940;2023-11-21T14:40:30;4.10;;;2.70;;
32321;SDS011;61553;48.994;8.940;2023-11-21T14:43:01;3.63;;;2.13;;
32321;SDS011;61553;48.994;8.940;2023-11-21T14:45:30;5.50;;;2.95;;
32321;SDS011;61553;48.994;8.940;2023-11-21T14:47:57;4.38;;;2.63;;
32321;SDS011;61553;48.994;8.940;2023-11-21T14:50:34;6.68;;;2.40;;
32321;SDS011;61553;48.994;8.940;2023-11-21T14:53:02;4.28;;;2.60;;
32321;SDS011;61553;48.994;8.940;2023-11-21T14:55:31;4.20;;;2.67;;
32321;SDS011;61553;48.994;8.940;2023-11-21T14:58:04;7.25;;;3.70;;
32321;SDS011;61553;48.994;8.940;2023-11-21T15:00:30;5.20;;;2.85;;
32321;SDS011;61553;48.994;8.940;2023-11-21T15:03:08;4.60;;;2.40;;